createdAt,value
2018-04-27T00:00:05.868Z,99.90
2018-04-27T00:02:35.585Z,99.90
2018-04-27T00:05:04.438Z,99.90
2018-04-27T00:07:32.120Z,99.90
2018-04-27T00:10:00.538Z,99.90
2018-04-27T00:12:28.202Z,99.90
2018-04-27T00:14:55.824Z,99.90
2018-04-27T00:17:24.248Z,99.90
2018-04-27T00:19:51.885Z,99.90
2018-04-27T00:22:19.536Z,99.90
2018-04-27T00:24:47.197Z,99.90
2018-04-27T00:27:14.850Z,99.90
2018-04-27T00:29:43.262Z,99.90
2018-04-27T00:32:10.954Z,99.90
2018-04-27T00:34:38.601Z,99.90
2018-04-27T00:37:06.248Z,99.90
2018-04-27T00:39:34.676Z,99.90
2018-04-27T00:42:04.393Z,99.90
2018-04-27T00:44:33.781Z,99.90
2018-04-27T00:47:01.408Z,99.90
2018-04-27T00:49:29.084Z,99.90
2018-04-27T00:51:56.706Z,99.90
2018-04-27T00:54:24.371Z,99.90
2018-04-27T00:56:52.036Z,99.90
2018-04-27T00:59:19.683Z,99.90
2018-04-27T01:01:47.344Z,99.90
2018-04-27T01:04:15.013Z,99.90
2018-04-27T01:06:42.649Z,99.90
2018-04-27T01:09:11.082Z,99.90
2018-04-27T01:11:38.724Z,99.90
2018-04-27T01:14:06.393Z,99.90
2018-04-27T01:16:35.293Z,99.90
2018-04-27T01:19:02.992Z,99.90
2018-04-27T01:21:30.667Z,99.90
2018-04-27T01:23:59.086Z,99.90
2018-04-27T01:26:26.743Z,99.90
2018-04-27T01:28:54.381Z,99.90
2018-04-27T01:31:22.035Z,99.90
2018-04-27T01:33:50.446Z,99.90
2018-04-27T01:36:18.139Z,99.90
2018-04-27T01:38:46.340Z,99.90
2018-04-27T01:41:14.773Z,99.90
2018-04-27T01:43:42.431Z,99.90
2018-04-27T01:46:10.091Z,99.90
2018-04-27T01:48:37.731Z,99.90
2018-04-27T01:51:05.385Z,99.90
2018-04-27T01:53:33.012Z,99.90
2018-04-27T01:56:00.669Z,99.90
2018-04-27T01:58:28.279Z,99.90
2018-04-27T02:00:55.940Z,99.90
2018-04-27T02:03:23.548Z,99.90
2018-04-27T02:05:51.232Z,99.90
2018-04-27T02:08:19.640Z,99.90
2018-04-27T02:10:47.316Z,99.90
2018-04-27T02:13:14.969Z,99.90
2018-04-27T02:15:43.414Z,99.90
2018-04-27T02:18:11.846Z,99.90
2018-04-27T02:20:39.494Z,99.90
2018-04-27T02:23:07.167Z,99.90
2018-04-27T02:25:34.822Z,99.90
2018-04-27T02:28:03.002Z,99.90
2018-04-27T02:30:30.671Z,99.90
2018-04-27T02:32:58.346Z,99.90
2018-04-27T02:35:25.993Z,99.90
2018-04-27T02:37:53.664Z,99.90
2018-04-27T02:40:21.321Z,99.90
2018-04-27T02:42:48.998Z,99.90
2018-04-27T02:45:16.652Z,99.90
2018-04-27T02:47:44.329Z,99.90
2018-04-27T02:50:12.769Z,99.90
2018-04-27T02:52:40.451Z,99.90
2018-04-27T02:55:08.126Z,99.90
2018-04-27T02:57:35.787Z,99.90
2018-04-27T03:00:04.434Z,99.90
2018-04-27T03:02:32.097Z,99.90
2018-04-27T03:04:59.775Z,99.90
2018-04-27T03:07:27.439Z,99.90
2018-04-27T03:09:55.140Z,99.90
2018-04-27T03:12:23.542Z,99.90
2018-04-27T03:14:51.210Z,99.90
2018-04-27T03:17:18.853Z,99.90
2018-04-27T03:19:46.518Z,99.90
2018-04-27T03:22:14.166Z,99.90
2018-04-27T03:24:41.833Z,99.90
2018-04-27T03:27:09.488Z,99.90
2018-04-27T03:29:37.919Z,99.90
2018-04-27T03:32:05.584Z,99.90
2018-04-27T03:34:34.581Z,99.90
2018-04-27T03:37:03.044Z,99.90
2018-04-27T03:39:30.701Z,99.90
2018-04-27T03:41:58.351Z,99.90
2018-04-27T03:44:26.006Z,99.90
2018-04-27T03:46:53.680Z,99.90
2018-04-27T03:49:21.332Z,99.90
2018-04-27T03:51:49.019Z,99.90
2018-04-27T03:54:16.705Z,99.90
2018-04-27T03:56:44.356Z,99.90
2018-04-27T03:59:11.992Z,99.90
2018-04-27T04:01:51.576Z,99.90
2018-04-27T04:04:31.888Z,99.90
2018-04-27T04:06:59.573Z,99.90
2018-04-27T04:09:27.228Z,99.90
2018-04-27T04:11:54.900Z,99.90
2018-04-27T04:14:22.548Z,99.90
2018-04-27T04:16:50.211Z,99.90
2018-04-27T04:19:17.859Z,99.90
2018-04-27T04:21:45.540Z,99.90
2018-04-27T04:24:13.264Z,99.90
2018-04-27T04:26:41.635Z,99.90
2018-04-27T04:29:09.296Z,99.90
2018-04-27T04:31:36.937Z,99.90
2018-04-27T04:34:05.375Z,99.90
2018-04-27T04:36:33.040Z,99.90
2018-04-27T04:39:00.720Z,99.90
2018-04-27T04:41:28.386Z,99.90
2018-04-27T04:43:56.821Z,99.90
2018-04-27T04:46:24.457Z,99.90
2018-04-27T04:48:52.124Z,99.90
2018-04-27T04:51:19.778Z,99.90
2018-04-27T04:53:47.487Z,99.90
2018-04-27T04:56:15.143Z,99.90
2018-04-27T04:58:42.812Z,99.90
2018-04-27T05:01:10.454Z,99.90
2018-04-27T05:03:38.116Z,99.90
2018-04-27T05:06:05.764Z,99.90
2018-04-27T05:08:34.376Z,99.90
2018-04-27T05:11:02.045Z,99.90
2018-04-27T05:13:29.697Z,99.90
2018-04-27T05:15:57.356Z,99.90
2018-04-27T05:21:35.198Z,99.90
2018-04-27T05:24:04.067Z,99.90
2018-04-27T05:26:31.736Z,99.90
2018-04-27T05:28:59.414Z,99.90
2018-04-27T05:31:27.827Z,99.90
2018-04-27T05:33:55.465Z,99.90
2018-04-27T05:36:23.880Z,99.90
2018-04-27T05:38:51.500Z,99.90
2018-04-27T05:41:19.167Z,99.90
2018-04-27T05:43:47.542Z,99.90
2018-04-27T05:46:15.186Z,99.90
2018-04-27T05:48:42.809Z,99.90
2018-04-27T05:51:10.453Z,99.90
2018-04-27T05:53:38.097Z,99.90
2018-04-27T05:56:05.825Z,99.90
2018-04-27T05:58:34.454Z,99.90
2018-04-27T06:01:02.158Z,99.90
2018-04-27T06:03:41.718Z,99.90
2018-04-27T06:06:09.388Z,99.90
2018-04-27T06:08:37.787Z,99.90
2018-04-27T06:11:05.430Z,99.90
2018-04-27T06:13:34.860Z,99.90
2018-04-27T06:16:02.945Z,99.90
2018-04-27T06:18:30.610Z,99.90
2018-04-27T06:20:58.266Z,99.90
2018-04-27T06:23:25.933Z,99.90
2018-04-27T06:25:53.580Z,99.90
2018-04-27T06:28:21.249Z,99.90
2018-04-27T06:30:48.887Z,99.90
2018-04-27T06:33:16.557Z,99.90
2018-04-27T06:35:44.210Z,99.90
2018-04-27T06:38:11.878Z,99.90
2018-04-27T06:40:39.521Z,99.90
2018-04-27T06:43:07.946Z,99.90
2018-04-27T06:45:35.600Z,99.90
2018-04-27T06:48:04.031Z,99.90
2018-04-27T06:50:32.978Z,99.90
2018-04-27T06:53:00.641Z,99.90
2018-04-27T06:55:28.276Z,99.90
2018-04-27T06:57:55.908Z,99.90
2018-04-27T07:00:24.335Z,99.90
2018-04-27T07:02:51.994Z,99.90
2018-04-27T07:05:19.745Z,99.90
2018-04-27T07:07:47.329Z,99.90
2018-04-27T07:10:14.997Z,99.90
2018-04-27T07:12:42.637Z,99.90
2018-04-27T07:15:10.301Z,99.90
2018-04-27T07:17:37.932Z,99.90
2018-04-27T07:20:05.590Z,99.90
2018-04-27T07:22:34.243Z,99.90
2018-04-27T07:25:01.897Z,99.90
2018-04-27T07:27:29.549Z,99.90
2018-04-27T07:29:57.189Z,99.90
2018-04-27T07:32:24.886Z,99.90
2018-04-27T07:34:52.486Z,99.90
2018-04-27T07:37:20.116Z,99.90
2018-04-27T07:39:48.558Z,99.90
2018-04-27T07:42:16.185Z,99.90
2018-04-27T07:44:43.814Z,99.90
2018-04-27T07:47:11.481Z,99.90
2018-04-27T07:49:39.893Z,99.90
2018-04-27T07:52:07.560Z,99.90
2018-04-27T07:54:35.194Z,99.90
2018-04-27T07:57:03.641Z,99.90
2018-04-27T07:59:31.266Z,99.90
2018-04-27T08:01:58.916Z,99.90
2018-04-27T08:04:26.546Z,99.90
2018-04-27T08:06:54.959Z,99.90
2018-04-27T08:09:22.588Z,99.90
2018-04-27T08:11:51.018Z,99.90
2018-04-27T08:14:19.409Z,99.90
2018-04-27T08:16:47.069Z,99.90
2018-04-27T08:19:14.709Z,99.90
2018-04-27T08:21:42.357Z,99.90
2018-04-27T08:24:09.994Z,99.50
2018-04-27T08:26:38.424Z,99.90
2018-04-27T08:29:06.046Z,99.90
2018-04-27T08:31:35.014Z,99.90
2018-04-27T08:34:03.436Z,99.90
2018-04-27T08:36:31.063Z,99.90
2018-04-27T08:38:59.468Z,95.30
2018-04-27T08:41:27.097Z,95.50
2018-04-27T08:43:55.528Z,98.30
2018-04-27T08:46:23.141Z,98.30
2018-04-27T08:48:51.553Z,99.50
2018-04-27T08:51:19.181Z,99.40
2018-04-27T08:53:47.594Z,95.00
2018-04-27T08:56:15.217Z,94.80
2018-04-27T08:58:43.636Z,97.50
2018-04-27T09:01:11.252Z,97.50
2018-04-27T09:03:38.893Z,99.30
2018-04-27T09:06:06.512Z,97.30
2018-04-27T09:08:35.036Z,98.10
2018-04-27T09:11:03.320Z,93.20
2018-04-27T09:13:30.985Z,94.20
2018-04-27T09:15:58.610Z,97.20
2018-04-27T09:18:26.285Z,97.70
2018-04-27T09:20:53.904Z,94.60
2018-04-27T09:23:21.532Z,99.90
2018-04-27T09:25:49.201Z,92.90
2018-04-27T09:28:17.601Z,90.80
2018-04-27T09:30:45.232Z,90.70
2018-04-27T09:33:12.852Z,90.30
2018-04-27T09:35:40.499Z,94.90
2018-04-27T09:38:08.137Z,88.70
2018-04-27T09:40:35.783Z,91.40
2018-04-27T09:43:05.216Z,90.90
2018-04-27T09:45:34.044Z,91.00
2018-04-27T09:48:01.683Z,90.20
2018-04-27T09:50:29.324Z,87.40
2018-04-27T09:52:56.946Z,89.00
2018-04-27T09:55:24.573Z,87.10
2018-04-27T09:57:52.200Z,91.00
2018-04-27T10:00:19.827Z,90.80
2018-04-27T10:02:47.481Z,87.60
2018-04-27T10:05:15.086Z,85.50
2018-04-27T10:07:42.718Z,85.10
2018-04-27T10:10:11.100Z,90.00
2018-04-27T10:12:39.513Z,88.60
2018-04-27T10:15:07.205Z,88.60
2018-04-27T10:17:34.801Z,87.80
2018-04-27T10:20:04.029Z,84.00
2018-04-27T10:22:31.684Z,84.10
2018-04-27T10:24:59.303Z,84.60
2018-04-27T10:27:26.965Z,83.30
2018-04-27T10:29:54.616Z,82.80
2018-04-27T10:32:22.247Z,84.50
2018-04-27T10:34:49.865Z,90.90
2018-04-27T10:37:18.259Z,89.70
2018-04-27T10:39:45.872Z,89.50
2018-04-27T10:42:13.535Z,85.50
2018-04-27T10:44:41.145Z,90.70
2018-04-27T10:47:08.760Z,91.40
2018-04-27T10:49:36.402Z,79.30
2018-04-27T10:52:04.472Z,92.40
2018-04-27T10:54:32.118Z,90.40
2018-04-27T10:56:59.732Z,86.40
2018-04-27T10:59:28.137Z,85.30
2018-04-27T11:01:55.754Z,84.90
2018-04-27T11:04:23.403Z,88.50
2018-04-27T11:06:51.009Z,87.40
2018-04-27T11:09:18.640Z,76.10
2018-04-27T11:11:46.266Z,82.30
2018-04-27T11:14:13.919Z,83.80
2018-04-27T11:16:41.574Z,81.00
2018-04-27T11:19:09.198Z,82.20
2018-04-27T11:21:37.593Z,91.20
2018-04-27T11:24:05.233Z,91.10
2018-04-27T11:26:33.622Z,75.80
2018-04-27T11:29:02.124Z,80.70
2018-04-27T11:31:31.282Z,73.20
2018-04-27T11:33:58.896Z,72.40
2018-04-27T11:36:26.537Z,83.50
2018-04-27T11:38:54.159Z,68.60
2018-04-27T11:41:21.872Z,76.30
2018-04-27T11:43:49.419Z,73.50
2018-04-27T11:46:17.065Z,76.10
2018-04-27T11:48:45.460Z,74.70
2018-04-27T11:51:13.122Z,74.70
2018-04-27T11:53:40.741Z,58.50
2018-04-27T11:56:08.380Z,57.80
2018-04-27T11:58:36.001Z,65.40
2018-04-27T12:01:04.104Z,61.20
2018-04-27T12:03:31.698Z,65.50
2018-04-27T12:05:59.326Z,71.20
2018-04-27T12:08:26.939Z,70.10
2018-04-27T12:10:55.340Z,77.40
2018-04-27T12:13:22.948Z,77.30
2018-04-27T12:15:50.572Z,67.10
2018-04-27T12:18:18.229Z,70.60
2018-04-27T12:20:45.845Z,63.50
2018-04-27T12:23:14.258Z,60.20
2018-04-27T12:25:41.858Z,60.40
2018-04-27T12:28:09.502Z,57.70
2018-04-27T12:30:37.112Z,60.00
2018-04-27T12:33:05.514Z,61.90
2018-04-27T12:35:34.413Z,62.00
2018-04-27T12:38:02.050Z,63.60
2018-04-27T12:40:29.678Z,76.20
2018-04-27T12:42:57.329Z,70.90
2018-04-27T12:45:24.940Z,69.10
2018-04-27T12:47:52.580Z,73.00
2018-04-27T12:50:20.965Z,64.70
2018-04-27T12:52:49.364Z,64.90
2018-04-27T12:55:16.979Z,64.80
2018-04-27T12:57:44.628Z,69.40
2018-04-27T13:00:12.243Z,71.00
2018-04-27T13:02:39.900Z,69.50
2018-04-27T13:05:07.525Z,68.60
2018-04-27T13:07:35.144Z,70.80
2018-04-27T13:10:03.844Z,71.10
2018-04-27T13:12:31.442Z,66.00
2018-04-27T13:14:59.842Z,68.10
2018-04-27T13:17:27.461Z,67.80
2018-04-27T13:19:55.107Z,60.20
2018-04-27T13:22:22.723Z,59.70
2018-04-27T13:24:50.360Z,67.60
2018-04-27T13:27:18.746Z,75.00
2018-04-27T13:29:47.156Z,72.20
2018-04-27T13:32:14.763Z,72.40
2018-04-27T13:34:42.403Z,66.10
2018-04-27T13:37:10.019Z,66.10
2018-04-27T13:39:37.647Z,63.60
2018-04-27T13:42:05.267Z,66.40
2018-04-27T13:44:32.982Z,69.20
2018-04-27T13:47:01.370Z,74.80
2018-04-27T13:49:29.779Z,69.60
2018-04-27T13:51:57.402Z,69.50
2018-04-27T13:54:25.843Z,70.10
2018-04-27T13:56:53.485Z,70.20
2018-04-27T13:59:21.152Z,71.10
2018-04-27T14:01:48.789Z,65.30
2018-04-27T14:04:16.416Z,71.90
2018-04-27T14:06:44.818Z,65.10
2018-04-27T14:09:12.436Z,64.30
2018-04-27T14:11:40.075Z,68.00
2018-04-27T14:14:07.709Z,66.30
2018-04-27T14:16:35.373Z,68.70
2018-04-27T14:19:03.024Z,72.20
2018-04-27T14:21:30.723Z,70.50
2018-04-27T14:23:58.325Z,72.90
2018-04-27T14:26:25.975Z,71.10
2018-04-27T14:28:53.577Z,75.60
2018-04-27T14:31:21.211Z,67.90
2018-04-27T14:33:49.659Z,69.10
2018-04-27T14:36:17.260Z,69.20
2018-04-27T14:38:45.655Z,62.60
2018-04-27T14:41:13.289Z,62.50
2018-04-27T14:43:41.657Z,71.10
2018-04-27T14:46:09.316Z,71.10
2018-04-27T14:48:36.940Z,64.30
2018-04-27T14:51:05.088Z,65.50
2018-04-27T14:53:33.644Z,67.90
2018-04-27T14:56:02.029Z,70.40
2018-04-27T14:58:30.424Z,69.00
2018-04-27T15:00:58.028Z,68.70
2018-04-27T15:03:25.668Z,69.60
2018-04-27T15:05:53.329Z,62.50
2018-04-27T15:08:20.956Z,62.30
2018-04-27T15:10:49.322Z,56.40
2018-04-27T15:13:17.730Z,61.70
2018-04-27T15:15:45.356Z,61.70
2018-04-27T15:18:13.780Z,64.50
2018-04-27T15:20:41.400Z,64.50
2018-04-27T15:23:09.814Z,58.40
2018-04-27T15:25:37.447Z,58.30
2018-04-27T15:28:05.861Z,58.50
2018-04-27T15:30:33.485Z,58.40
2018-04-27T15:33:01.869Z,55.40
2018-04-27T15:35:29.507Z,55.20
2018-04-27T15:37:57.125Z,57.40
2018-04-27T15:40:24.824Z,52.40
2018-04-27T15:42:52.484Z,46.00
2018-04-27T15:45:20.111Z,51.20
2018-04-27T15:47:47.730Z,53.50
2018-04-27T15:50:16.156Z,51.60
2018-04-27T15:52:43.829Z,51.80
2018-04-27T15:57:52.129Z,39.80
2018-04-27T16:00:21.529Z,46.60
2018-04-27T16:02:50.690Z,46.70
2018-04-27T16:05:18.980Z,46.20
2018-04-27T16:07:47.079Z,47.30
2018-04-27T16:10:15.526Z,46.50
2018-04-27T16:12:43.952Z,49.00
2018-04-27T16:15:11.604Z,49.00
2018-04-27T16:17:39.228Z,49.20
2018-04-27T16:20:06.877Z,51.30
2018-04-27T16:22:35.283Z,50.80
2018-04-27T16:25:02.947Z,50.90
2018-04-27T16:27:30.609Z,52.00
2018-04-27T16:29:58.237Z,54.30
2018-04-27T16:32:26.649Z,53.70
2018-04-27T16:34:54.267Z,53.80
2018-04-27T16:37:21.903Z,53.00
2018-04-27T16:39:49.506Z,53.70
2018-04-27T16:42:17.908Z,52.20
2018-04-27T16:44:45.513Z,52.00
2018-04-27T16:47:13.153Z,52.40
2018-04-27T16:49:40.852Z,53.80
2018-04-27T16:52:08.448Z,52.00
2018-04-27T16:54:36.078Z,50.30
2018-04-27T16:57:05.588Z,53.00
2018-04-27T16:59:35.186Z,50.20
2018-04-27T17:02:03.603Z,47.50
2018-04-27T17:04:31.248Z,47.50
2018-04-27T17:06:58.896Z,45.10
2018-04-27T17:09:27.328Z,49.30
2018-04-27T17:11:54.956Z,49.40
2018-04-27T17:14:22.563Z,50.80
2018-04-27T17:16:50.208Z,48.90
2018-04-27T17:19:17.873Z,52.00
2018-04-27T17:21:45.499Z,52.40
2018-04-27T17:24:13.137Z,51.70
2018-04-27T17:26:41.516Z,55.30
2018-04-27T17:29:09.937Z,56.00
2018-04-27T17:31:37.562Z,56.00
2018-04-27T17:34:06.011Z,56.60
2018-04-27T17:36:33.987Z,56.60
2018-04-27T17:39:01.621Z,57.20
2018-04-27T17:41:29.231Z,57.70
2018-04-27T17:43:57.648Z,60.70
2018-04-27T17:46:25.265Z,60.60
2018-04-27T17:48:53.689Z,58.80
2018-04-27T17:51:21.329Z,58.80
2018-04-27T17:53:48.944Z,61.10
2018-04-27T17:56:16.580Z,60.00
2018-04-27T17:58:44.208Z,61.00
2018-04-27T18:01:11.845Z,62.10
2018-04-27T18:03:40.213Z,64.10
2018-04-27T18:06:08.627Z,65.30
2018-04-27T18:08:36.247Z,65.30
2018-04-27T18:11:04.646Z,67.60
2018-04-27T18:13:33.741Z,70.40
2018-04-27T18:16:01.380Z,70.20
2018-04-27T18:18:29.005Z,70.60
2018-04-27T18:20:56.665Z,69.20
2018-04-27T18:23:24.280Z,71.90
2018-04-27T18:25:52.652Z,74.80
2018-04-27T18:28:21.073Z,73.80
2018-04-27T18:30:48.700Z,73.80
2018-04-27T18:33:16.402Z,76.80
2018-04-27T18:35:44.129Z,78.80
2018-04-27T18:38:11.812Z,79.10
2018-04-27T18:40:39.418Z,79.70
2018-04-27T18:43:07.083Z,80.30
2018-04-27T18:45:34.699Z,81.60
2018-04-27T18:48:07.849Z,82.90
2018-04-27T18:50:36.555Z,86.70
2018-04-27T18:53:05.385Z,86.70
2018-04-27T18:55:33.010Z,87.40
2018-04-27T18:58:00.625Z,85.60
2018-04-27T19:00:32.150Z,87.80
2018-04-27T19:02:59.764Z,87.70
2018-04-27T19:05:27.404Z,87.90
2018-04-27T19:07:57.756Z,89.70
2018-04-27T19:10:32.024Z,90.70
2018-04-27T19:12:59.633Z,90.50
2018-04-27T19:15:27.264Z,91.50
2018-04-27T19:18:00.186Z,92.10
2018-04-27T19:20:27.809Z,92.50
2018-04-27T19:22:58.128Z,92.50
2018-04-27T19:25:25.786Z,93.60
2018-04-27T19:27:53.395Z,93.40
2018-04-27T19:30:21.628Z,92.90
2018-04-27T19:32:50.645Z,93.90
2018-04-27T19:35:19.642Z,93.90
2018-04-27T19:37:48.939Z,94.60
2018-04-27T19:40:17.649Z,94.30
2018-04-27T19:42:45.466Z,94.90
2018-04-27T19:45:13.063Z,95.40
2018-04-27T19:47:41.434Z,95.50
2018-04-27T19:50:09.566Z,96.00
2018-04-27T19:52:38.162Z,96.90
2018-04-27T19:55:06.984Z,96.70
2018-04-27T19:57:35.444Z,96.70
2018-04-27T20:00:05.282Z,96.70
2018-04-27T20:02:35.461Z,97.60
2018-04-27T20:05:05.813Z,97.60
2018-04-27T20:07:35.499Z,97.70
2018-04-27T20:13:21.124Z,98.50
2018-04-27T20:15:52.013Z,98.50
2018-04-27T20:18:23.466Z,98.30
2018-04-27T20:20:52.754Z,98.70
2018-04-27T20:23:22.618Z,98.60
2018-04-27T20:25:51.742Z,98.60
2018-04-27T20:28:20.572Z,99.20
2018-04-27T20:30:49.062Z,99.20
2018-04-27T20:33:17.219Z,99.00
2018-04-27T20:35:45.142Z,99.60
2018-04-27T20:38:15.426Z,99.90
2018-04-27T20:40:43.032Z,99.90
2018-04-27T20:43:12.451Z,99.90
2018-04-27T20:45:40.064Z,99.90
2018-04-27T20:48:11.973Z,99.90
2018-04-27T20:50:39.625Z,99.90
2018-04-27T20:53:07.229Z,99.90
2018-04-27T20:55:34.859Z,99.90
2018-04-27T20:58:02.929Z,99.90
2018-04-27T21:00:31.349Z,99.90
2018-04-27T21:02:59.742Z,99.90
2018-04-27T21:05:27.371Z,99.90
2018-04-27T21:07:54.989Z,99.90
2018-04-27T21:10:22.638Z,99.90
2018-04-27T21:12:51.052Z,99.90
2018-04-27T21:15:18.688Z,99.90
2018-04-27T21:17:47.996Z,99.90
2018-04-27T21:20:19.525Z,99.90
2018-04-27T21:22:47.980Z,99.90
2018-04-27T21:25:31.288Z,99.90
2018-04-27T21:27:58.905Z,99.90
2018-04-27T21:30:26.539Z,99.90
2018-04-27T21:33:13.671Z,99.90
2018-04-27T21:35:42.851Z,99.90
2018-04-27T21:38:15.128Z,99.90
2018-04-27T21:40:42.738Z,99.90
2018-04-27T21:43:10.385Z,99.90
2018-04-27T21:45:38.005Z,99.90
2018-04-27T21:48:06.415Z,99.90
2018-04-27T21:50:34.786Z,99.90
2018-04-27T21:53:02.978Z,99.90
2018-04-27T21:55:30.591Z,99.90
2018-04-27T21:58:03.504Z,99.90
2018-04-27T22:00:31.117Z,99.90
2018-04-27T22:03:15.247Z,99.90
2018-04-27T22:05:49.814Z,99.90
2018-04-27T22:08:36.465Z,99.90
2018-04-27T22:14:07.815Z,99.90
2018-04-27T22:16:38.838Z,99.90
2018-04-27T22:19:06.476Z,99.90
2018-04-27T22:21:35.596Z,99.90
2018-04-27T22:24:04.138Z,99.90
2018-04-27T22:26:31.740Z,99.90
2018-04-27T22:29:00.235Z,99.90
2018-04-27T22:31:27.844Z,99.90
2018-04-27T22:33:56.301Z,99.90
2018-04-27T22:36:42.359Z,99.90
2018-04-27T22:42:17.745Z,99.90
2018-04-27T22:44:55.905Z,99.90
2018-04-27T22:47:27.248Z,99.90
2018-04-27T22:49:55.652Z,99.90
2018-04-27T22:52:23.264Z,99.90
2018-04-27T22:54:51.661Z,99.90
2018-04-27T22:57:31.875Z,99.90
2018-04-27T23:00:00.260Z,99.90
2018-04-27T23:02:27.858Z,99.90
2018-04-27T23:04:59.926Z,99.90
2018-04-27T23:07:33.887Z,99.90
2018-04-27T23:10:01.500Z,99.90
2018-04-27T23:12:44.785Z,99.90
2018-04-27T23:15:12.400Z,99.90
2018-04-27T23:17:40.022Z,99.90
2018-04-27T23:20:13.368Z,99.90
2018-04-27T23:22:44.182Z,99.90
2018-04-27T23:25:16.635Z,99.90
2018-04-27T23:27:45.019Z,99.90
2018-04-27T23:30:13.400Z,99.90
2018-04-27T23:32:41.801Z,99.90
2018-04-27T23:35:09.456Z,99.90
2018-04-27T23:37:37.096Z,99.90
2018-04-27T23:40:05.466Z,99.90
2018-04-27T23:42:33.724Z,99.90
2018-04-27T23:45:01.330Z,99.90
2018-04-27T23:47:28.971Z,99.90
2018-04-27T23:49:57.325Z,99.90
2018-04-27T23:52:24.966Z,99.90
2018-04-27T23:54:52.567Z,99.90
2018-04-27T23:57:20.968Z,99.90
2018-04-27T23:59:53.130Z,99.90
